Time;durP1;ratioP1;P1;durP2;ratioP2;P2;SDS_P1;SDS_P2;PMS_P1;PMS_P2;Temp;Humidity;BMP_temperature;BMP_pressure;BME280_temperature;BME280_humidity;BME280_pressure;Samples;Min_cycle;Max_cycle;Signal;HPM_P1;HPM_P2
2022/05/01 00:01:11;;;;;;;8.23;2.53;;;;;;;7.57;86.32;102269.94;5051846;28;20186;-42
2022/05/01 00:03:36;;;;;;;6.38;2.58;;;;;;;7.43;86.99;102265.50;5052638;28;20218;-43
2022/05/01 00:06:09;;;;;;;7.80;2.42;;;;;;;7.38;87.28;102272.63;5052212;28;20238;-47
2022/05/01 00:08:37;;;;;;;3.92;2.50;;;;;;;7.47;87.10;102273.50;5052033;28;20664;-44
2022/05/01 00:11:03;;;;;;;4.93;2.50;;;;;;;7.46;87.45;102271.72;5052134;28;20166;-44
2022/05/01 00:13:29;;;;;;;5.97;2.83;;;;;;;7.53;87.48;102276.16;5051923;28;20246;-46
2022/05/01 00:15:56;;;;;;;6.38;2.65;;;;;;;7.47;87.51;102277.03;5052297;28;20175;-45
2022/05/01 00:18:22;;;;;;;7.25;2.88;;;;;;;7.42;87.51;102266.38;5051830;28;20657;-48
2022/05/01 00:20:48;;;;;;;9.80;3.22;;;;;;;7.49;87.51;102271.72;5052152;28;20179;-44
2022/05/01 00:23:13;;;;;;;9.52;2.90;;;;;;;7.56;87.34;102269.00;5052131;28;20183;-44
2022/05/01 00:25:41;;;;;;;6.20;2.67;;;;;;;7.32;87.31;102261.94;5051915;28;20289;-45
2022/05/01 00:28:10;;;;;;;6.68;2.88;;;;;;;7.26;88.11;102264.66;5033235;28;20186;-46
2022/05/01 00:30:36;;;;;;;8.70;3.17;;;;;;;7.17;88.31;102256.66;5033596;28;20198;-47
2022/05/01 00:38:30;;;;;;;7.45;3.03;;;;;;;7.25;89.27;102267.31;5051521;28;20174;-46
2022/05/01 00:40:56;;;;;;;5.70;3.22;;;;;;;7.28;90.02;102270.88;5051510;28;20170;-44
2022/05/01 00:43:22;;;;;;;5.70;3.05;;;;;;;7.34;89.90;102254.84;5051249;28;20234;-44
2022/05/01 00:45:47;;;;;;;5.30;3.03;;;;;;;7.21;89.91;102271.75;5051422;28;20654;-47
2022/05/01 00:48:13;;;;;;;6.53;2.95;;;;;;;7.25;89.48;102265.53;5047631;28;20168;-43
2022/05/01 00:50:39;;;;;;;6.55;2.90;;;;;;;7.14;89.60;102268.19;5030723;28;20192;-43
2022/05/01 00:53:06;;;;;;;3.55;2.92;;;;;;;7.34;89.96;102256.63;5031354;28;20233;-42
2022/05/01 00:55:32;;;;;;;4.97;2.97;;;;;;;7.29;90.19;102266.44;5030960;28;20164;-44
2022/05/01 00:58:01;;;;;;;6.10;3.20;;;;;;;7.40;89.95;102253.97;5031116;28;20203;-42
2022/05/01 01:00:26;;;;;;;6.28;3.22;;;;;;;7.31;90.50;102256.66;5029396;28;20577;-42
2022/05/01 01:02:52;;;;;;;8.88;3.00;;;;;;;7.24;90.61;102266.44;5030813;28;20168;-42
2022/05/01 01:05:17;;;;;;;9.57;3.53;;;;;;;7.28;91.02;102253.97;5030851;28;20263;-42
2022/05/01 01:07:42;;;;;;;8.50;3.38;;;;;;;7.17;91.38;102256.66;5030537;28;20176;-43
2022/05/01 01:10:09;;;;;;;6.75;2.97;;;;;;;7.13;91.75;102262.91;4995689;28;20615;-44
2022/05/01 01:12:55;;;;;;;8.27;2.97;;;;;;;7.13;91.73;102263.78;5030998;28;20528;-44
2022/05/01 01:15:29;;;;;;;6.60;3.00;;;;;;;7.23;91.99;102264.63;5032399;28;20166;-44
2022/05/01 01:17:55;;;;;;;9.40;3.08;;;;;;;7.25;91.62;102262.88;5070144;28;20715;-45
2022/05/01 01:20:25;;;;;;;10.15;3.60;;;;;;;7.15;91.65;102263.75;5069676;28;20191;-45
2022/05/01 01:22:53;;;;;;;6.20;3.30;;;;;;;7.15;91.80;102267.34;5070398;28;20197;-43
2022/05/01 01:25:31;;;;;;;6.32;3.22;;;;;;;7.16;91.92;102274.44;5069832;28;20190;-43
2022/05/01 01:28:05;;;;;;;5.90;3.00;;;;;;;7.00;92.54;102265.56;5070328;28;20204;-45
2022/05/01 01:33:17;;;;;;;6.53;3.05;;;;;;;6.99;93.60;102276.22;5069784;28;20221;-44
2022/05/01 01:35:44;;;;;;;9.65;3.72;;;;;;;6.90;93.84;102271.75;5070099;28;20193;-42
2022/05/01 01:38:09;;;;;;;8.90;3.30;;;;;;;6.96;93.76;102276.22;5069979;28;20696;-42
2022/05/01 01:40:40;;;;;;;8.88;3.38;;;;;;;6.97;93.79;102269.97;5051328;28;20356;-44
2022/05/01 01:43:06;;;;;;;7.28;3.75;;;;;;;6.87;93.81;102282.44;5052453;28;20195;-43
2022/05/01 01:45:32;;;;;;;7.88;3.95;;;;;;;6.89;93.88;102275.34;5051889;28;20568;-43
2022/05/01 01:48:18;;;;;;;7.57;3.42;;;;;;;6.90;94.24;102274.44;5067100;28;20235;-45
2022/05/01 01:50:53;;;;;;;9.20;3.80;;;;;;;6.93;93.99;102278.88;5029687;28;20687;-45
2022/05/01 01:53:19;;;;;;;6.75;3.58;;;;;;;6.87;93.95;102279.78;5030203;28;20159;-42
2022/05/01 01:55:44;;;;;;;7.47;3.25;;;;;;;6.85;93.97;102288.66;5029881;28;20667;-43
2022/05/01 01:58:09;;;;;;;8.18;4.05;;;;;;;6.81;94.71;102275.31;5029958;28;20270;-44
2022/05/01 02:00:35;;;;;;;13.25;4.22;;;;;;;6.76;94.42;102279.75;5029571;28;20686;-43
2022/05/01 02:03:03;;;;;;;7.47;3.72;;;;;;;6.79;94.91;102281.53;5029931;28;20163;-45
2022/05/01 02:05:30;;;;;;;9.32;3.47;;;;;;;6.83;94.60;102278.00;5012303;28;20239;-44
2022/05/01 02:07:56;;;;;;;9.60;3.95;;;;;;;6.74;94.99;102278.00;5029660;28;20282;-46
2022/05/01 02:10:22;;;;;;;5.97;3.20;;;;;;;6.82;94.96;102281.53;5029476;28;20223;-42
2022/05/01 02:12:47;;;;;;;6.57;3.22;;;;;;;6.74;94.96;102265.56;5029923;28;20184;-44
2022/05/01 02:15:13;;;;;;;9.52;3.60;;;;;;;6.67;95.30;102269.09;5029817;28;20588;-44
2022/05/01 02:17:41;;;;;;;7.22;3.58;;;;;;;6.46;95.46;102269.94;5029489;28;20188;-44
2022/05/01 02:20:08;;;;;;;10.20;3.80;;;;;;;6.43;96.68;102261.97;5029093;28;20207;-46
2022/05/01 02:22:34;;;;;;;9.07;3.63;;;;;;;6.40;97.00;102273.47;5029547;28;20245;-43
2022/05/01 02:25:00;;;;;;;7.55;3.55;;;;;;;6.52;97.55;102277.06;5028840;28;20207;-45
2022/05/01 02:27:26;;;;;;;8.57;3.45;;;;;;;6.53;97.72;102270.84;5029645;28;20208;-44
2022/05/01 02:29:51;;;;;;;7.47;3.45;;;;;;;6.67;97.94;102263.78;5029260;28;20208;-45
2022/05/01 02:32:17;;;;;;;9.05;3.45;;;;;;;6.70;97.62;102269.09;5029276;28;20226;-43
2022/05/01 02:34:42;;;;;;;12.68;3.55;;;;;;;6.69;98.03;102267.34;5029602;28;20172;-42
2022/05/01 02:37:07;;;;;;;10.82;3.75;;;;;;;6.63;97.51;102264.66;5029207;28;20175;-46
2022/05/01 02:39:34;;;;;;;10.07;3.55;;;;;;;6.63;98.15;102266.44;5028974;28;20472;-43
2022/05/01 02:42:00;;;;;;;5.10;3.35;;;;;;;6.75;97.82;102271.75;5029938;28;20648;-44
2022/05/01 02:44:25;;;;;;;9.52;4.07;;;;;;;6.50;98.03;102271.72;5028791;28;20259;-43
2022/05/01 02:46:51;;;;;;;5.70;3.55;;;;;;;6.64;98.67;102271.75;5029428;28;20216;-43
2022/05/01 02:49:16;;;;;;;7.80;3.65;;;;;;;6.75;98.62;102269.09;5028699;28;20317;-44
2022/05/01 02:51:42;;;;;;;12.70;3.97;;;;;;;6.65;98.89;102259.31;5031572;28;20172;-44
2022/05/01 02:54:07;;;;;;;12.52;3.63;;;;;;;6.61;98.63;102271.75;5033035;28;20172;-44
2022/05/01 02:56:34;;;;;;;7.88;3.80;;;;;;;6.68;99.29;102268.19;5033051;28;20168;-46
2022/05/01 02:59:01;;;;;;;5.88;3.80;;;;;;;6.69;99.22;102272.66;5033223;28;20682;-45
2022/05/01 03:01:29;;;;;;;6.47;3.58;;;;;;;6.59;99.35;102274.41;5032869;28;20184;-44
2022/05/01 03:03:55;;;;;;;10.27;3.85;;;;;;;6.49;99.42;102275.25;5033146;28;20635;-45
2022/05/01 03:06:20;;;;;;;9.30;4.00;;;;;;;6.43;99.83;102269.94;5032860;28;20273;-44
2022/05/01 03:08:46;;;;;;;10.20;3.78;;;;;;;6.55;100.00;102269.97;5032421;28;20214;-45
2022/05/01 03:11:11;;;;;;;9.60;4.15;;;;;;;6.61;100.00;102271.75;5032330;28;20180;-43
2022/05/01 03:13:37;;;;;;;8.55;3.60;;;;;;;6.56;100.00;102269.09;5035308;28;20603;-42
2022/05/01 03:16:03;;;;;;;10.65;4.35;;;;;;;6.50;100.00;102271.72;5049070;28;20194;-43
2022/05/01 03:23:56;;;;;;;9.05;3.92;;;;;;;6.58;100.00;102262.00;4827779;28;20191;-42
2022/05/01 03:26:21;;;;;;;8.50;4.30;;;;;;;6.61;100.00;102258.44;5003911;28;20215;-43
2022/05/01 03:28:48;;;;;;;8.82;3.63;;;;;;;6.73;100.00;102254.88;5052125;28;20230;-45
2022/05/01 03:31:14;;;;;;;9.52;3.78;;;;;;;6.71;100.00;102257.56;5052079;28;20167;-42
2022/05/01 03:33:42;;;;;;;8.55;4.18;;;;;;;6.71;100.00;102264.66;5052087;28;20164;-45
2022/05/01 03:36:09;;;;;;;6.28;3.58;;;;;;;6.73;100.00;102260.22;5052190;28;20168;-44
2022/05/01 03:38:40;;;;;;;7.03;3.50;;;;;;;6.69;100.00;102264.66;5051725;28;20747;-42
2022/05/01 03:41:07;;;;;;;8.38;3.75;;;;;;;6.64;100.00;102258.44;5051999;28;20175;-44
2022/05/01 03:43:33;;;;;;;8.50;3.75;;;;;;;6.60;100.00;102252.22;5052489;28;20190;-43
2022/05/01 03:45:59;;;;;;;10.45;4.53;;;;;;;6.57;100.00;102254.00;5051631;28;20300;-44
2022/05/01 03:48:25;;;;;;;9.40;4.20;;;;;;;6.62;100.00;102259.31;5046476;28;20266;-43
2022/05/01 03:50:52;;;;;;;7.90;4.28;;;;;;;6.69;100.00;102263.75;5031574;28;20203;-44
2022/05/01 03:53:19;;;;;;;10.85;4.38;;;;;;;6.61;100.00;102266.44;5032000;28;20623;-47
2022/05/01 03:55:44;;;;;;;8.30;4.18;;;;;;;6.70;100.00;102265.56;5014239;28;20184;-44
2022/05/01 03:58:09;;;;;;;9.40;4.18;;;;;;;6.76;100.00;102253.13;5031482;28;20262;-45
2022/05/01 04:00:35;;;;;;;8.27;4.18;;;;;;;6.68;100.00;102260.22;5031370;28;20199;-43
2022/05/01 04:03:00;;;;;;;11.68;4.55;;;;;;;6.64;100.00;102266.41;5030256;28;20164;-43
2022/05/01 04:05:26;;;;;;;12.40;5.22;;;;;;;6.64;100.00;102270.88;5031587;28;20208;-45
2022/05/01 04:07:51;;;;;;;9.05;4.13;;;;;;;6.65;100.00;102278.88;5013494;28;20263;-43
2022/05/01 04:10:17;;;;;;;9.48;4.20;;;;;;;6.67;100.00;102268.19;5030528;28;20208;-44
2022/05/01 04:12:44;;;;;;;7.13;4.35;;;;;;;6.74;100.00;102272.66;5031549;28;20181;-45
2022/05/01 04:15:11;;;;;;;8.20;4.75;;;;;;;6.71;100.00;102267.31;5031092;28;20184;-44
2022/05/01 04:17:40;;;;;;;9.45;4.70;;;;;;;6.68;100.00;102272.66;5031517;28;20271;-45
2022/05/01 04:20:09;;;;;;;8.85;4.65;;;;;;;6.67;100.00;102268.19;5030614;28;20299;-44
2022/05/01 04:22:48;;;;;;;9.68;5.00;;;;;;;6.62;100.00;102264.66;5030932;28;20184;-43
2022/05/01 04:25:16;;;;;;;8.05;4.53;;;;;;;6.61;100.00;102263.75;5031187;28;20260;-45
2022/05/01 04:27:44;;;;;;;10.23;4.97;;;;;;;6.65;100.00;102262.88;5030997;28;20172;-45
2022/05/01 04:30:11;;;;;;;14.25;4.40;;;;;;;6.68;100.00;102273.53;5030582;28;20196;-45
2022/05/01 04:32:47;;;;;;;12.43;4.32;;;;;;;6.66;100.00;102272.63;5031113;28;20176;-46
2022/05/01 04:35:12;;;;;;;8.82;4.82;;;;;;;6.75;100.00;102269.97;5030924;28;20175;-45
2022/05/01 04:37:38;;;;;;;7.35;4.22;;;;;;;6.78;100.00;102269.13;5030876;28;20686;-46
2022/05/01 04:40:04;;;;;;;9.13;4.70;;;;;;;6.71;100.00;102269.97;5030369;28;20220;-44
2022/05/01 04:42:29;;;;;;;12.43;5.30;;;;;;;6.67;100.00;102274.44;5031182;28;20507;-45
2022/05/01 04:44:55;;;;;;;13.73;4.78;;;;;;;6.81;100.00;102272.66;5030690;28;20525;-43
2022/05/01 04:47:20;;;;;;;9.70;4.75;;;;;;;6.73;100.00;102279.75;5030854;28;20192;-43
2022/05/01 04:49:46;;;;;;;7.20;4.38;;;;;;;6.84;100.00;102281.53;5046683;28;20344;-43
2022/05/01 04:52:11;;;;;;;9.18;4.75;;;;;;;6.90;100.00;102274.44;5032652;28;20688;-45
2022/05/01 04:54:38;;;;;;;9.55;5.40;;;;;;;6.80;100.00;102288.66;5050777;28;20633;-44
2022/05/01 04:57:09;;;;;;;9.23;4.65;;;;;;;6.86;100.00;102290.41;5050918;28;20179;-42
2022/05/01 04:59:36;;;;;;;5.78;4.40;;;;;;;6.87;100.00;102295.75;5050023;28;20209;-45
2022/05/01 05:02:01;;;;;;;12.93;5.07;;;;;;;6.79;100.00;102294.84;5050269;28;20179;-43
2022/05/01 05:04:27;;;;;;;10.00;4.32;;;;;;;6.80;100.00;102291.31;5049903;28;20162;-43
2022/05/01 05:06:54;;;;;;;11.90;5.38;;;;;;;6.85;100.00;102299.31;5050312;28;20211;-46
2022/05/01 05:12:06;;;;;;;9.18;5.00;;;;;;;6.96;100.00;102303.75;5050258;28;20697;-45
2022/05/01 05:14:31;;;;;;;8.20;4.75;;;;;;;6.98;100.00;102291.31;5049456;28;20184;-46
2022/05/01 05:16:57;;;;;;;10.20;4.65;;;;;;;7.06;100.00;102301.06;5050047;28;20217;-41
2022/05/01 05:19:23;;;;;;;6.45;4.47;;;;;;;7.06;100.00;102295.75;5049864;28;20195;-45
2022/05/01 05:21:48;;;;;;;9.25;5.15;;;;;;;6.97;100.00;102309.97;5049753;28;20172;-45
2022/05/01 05:24:14;;;;;;;12.98;5.47;;;;;;;6.96;100.00;102303.75;5049908;28;20203;-43
2022/05/01 05:26:39;;;;;;;7.60;5.05;;;;;;;7.08;100.00;102301.97;5049906;28;20240;-44
2022/05/01 05:29:05;;;;;;;9.48;5.90;;;;;;;6.92;100.00;102298.41;5049556;28;20209;-43
2022/05/01 05:31:30;;;;;;;11.73;5.70;;;;;;;7.01;100.00;102295.75;5049839;28;20256;-43
2022/05/01 05:33:55;;;;;;;10.93;5.70;;;;;;;7.12;100.00;102301.09;5049703;28;20183;-43
2022/05/01 05:36:21;;;;;;;7.95;5.68;;;;;;;7.20;100.00;102307.31;5050000;28;20475;-44
2022/05/01 05:38:46;;;;;;;9.48;5.57;;;;;;;7.27;100.00;102297.53;5049661;28;20222;-43
2022/05/01 05:41:12;;;;;;;11.43;6.35;;;;;;;7.29;99.79;102298.41;5048905;28;20646;-44
2022/05/01 05:43:37;;;;;;;13.93;6.45;;;;;;;7.23;99.68;102312.63;5049853;28;20183;-43
2022/05/01 05:46:02;;;;;;;12.25;6.07;;;;;;;7.14;99.80;102317.97;5049634;28;20669;-46
2022/05/01 05:48:28;;;;;;;9.02;6.53;;;;;;;7.20;99.91;102313.50;5044197;28;20481;-45
2022/05/01 05:50:53;;;;;;;13.48;7.03;;;;;;;7.26;100.00;102312.63;5028701;28;20168;-42
2022/05/01 05:53:18;;;;;;;13.40;7.88;;;;;;;7.31;99.90;102316.19;5030042;28;20176;-45
2022/05/01 05:55:46;;;;;;;11.70;8.15;;;;;;;7.38;99.63;102315.28;5034855;28;20186;-46
2022/05/01 05:58:11;;;;;;;13.27;7.65;;;;;;;7.48;99.25;102318.84;5031056;28;20175;-44
2022/05/01 06:00:37;;;;;;;11.52;7.78;;;;;;;7.38;98.87;102314.41;5049274;28;20677;-45
2022/05/01 06:03:02;;;;;;;10.43;8.23;;;;;;;7.41;98.75;102328.63;5048644;28;20190;-44
2022/05/01 06:05:28;;;;;;;13.98;7.70;;;;;;;7.59;98.58;102316.16;5049451;28;20199;-45
2022/05/01 06:07:53;;;;;;;13.68;7.53;;;;;;;7.60;98.06;102321.47;5049475;28;20234;-45
2022/05/01 06:10:19;;;;;;;11.20;6.38;;;;;;;7.62;98.17;102316.13;5048627;28;20209;-46
2022/05/01 06:12:44;;;;;;;8.35;6.70;;;;;;;7.58;98.13;102317.91;5049377;28;20207;-44
2022/05/01 06:15:10;;;;;;;8.02;6.10;;;;;;;7.64;97.60;102319.69;5048923;28;20187;-44
2022/05/01 06:17:36;;;;;;;12.18;6.05;;;;;;;7.66;97.57;102327.69;5014559;28;20361;-46
2022/05/01 06:20:01;;;;;;;8.10;5.57;;;;;;;7.77;97.49;102320.56;5048966;28;20376;-46
2022/05/01 06:22:27;;;;;;;7.78;5.60;;;;;;;7.81;97.35;102317.00;5049429;28;20197;-45
2022/05/01 06:24:52;;;;;;;10.90;5.55;;;;;;;7.84;96.48;102311.63;5048905;28;20658;-46
2022/05/01 06:27:17;;;;;;;10.88;6.30;;;;;;;7.83;96.45;102320.53;5052659;28;20207;-44
2022/05/01 06:29:44;;;;;;;8.48;5.35;;;;;;;7.85;96.37;102324.09;5052679;28;20205;-44
2022/05/01 06:32:10;;;;;;;5.70;4.90;;;;;;;7.84;95.91;102319.63;5053375;28;20225;-45
2022/05/01 06:34:37;;;;;;;5.18;4.32;;;;;;;7.93;95.70;102324.06;5053230;28;20605;-44
2022/05/01 06:37:04;;;;;;;5.40;4.25;;;;;;;8.05;95.48;102329.38;5053310;28;20190;-46
2022/05/01 06:39:29;;;;;;;9.73;4.13;;;;;;;8.00;94.48;102331.13;5053261;28;20203;-43
2022/05/01 06:41:55;;;;;;;6.50;4.55;;;;;;;7.82;94.22;102324.97;5052364;28;20591;-48
2022/05/01 06:44:20;;;;;;;6.53;3.88;;;;;;;8.03;94.48;102331.16;5053292;28;20631;-48
2022/05/01 06:46:46;;;;;;;8.00;4.25;;;;;;;8.07;94.47;102332.00;5052696;28;20646;-48
2022/05/01 06:49:11;;;;;;;8.15;4.40;;;;;;;8.10;93.99;102324.88;5052709;28;20227;-48
2022/05/01 06:51:37;;;;;;;6.85;4.32;;;;;;;8.03;94.13;102329.34;5052513;28;20172;-48
2022/05/01 06:54:04;;;;;;;6.05;3.95;;;;;;;8.14;94.28;102323.97;5052849;28;20198;-49
2022/05/01 06:56:29;;;;;;;7.03;3.83;;;;;;;8.01;93.61;102331.16;5034961;28;20176;-48
2022/05/01 06:58:55;;;;;;;7.68;4.00;;;;;;;8.23;94.24;102323.06;5052259;28;20206;-50
2022/05/01 07:01:20;;;;;;;4.93;3.80;;;;;;;8.40;93.30;102317.63;5052594;28;20548;-51
2022/05/01 07:03:47;;;;;;;6.47;4.25;;;;;;;8.41;92.92;102314.09;5052564;28;20525;-49
2022/05/01 07:06:13;;;;;;;5.20;3.60;;;;;;;8.59;92.68;102322.03;5052558;28;20302;-49
2022/05/01 07:08:38;;;;;;;5.75;4.30;;;;;;;8.68;92.48;102323.75;5052793;28;20590;-49
2022/05/01 07:11:03;;;;;;;9.32;4.30;;;;;;;8.69;92.12;102313.94;5051961;28;20222;-50
2022/05/01 07:13:29;;;;;;;6.55;4.15;;;;;;;8.96;91.71;102316.41;5052406;28;20552;-49
2022/05/01 07:15:54;;;;;;;5.85;3.85;;;;;;;8.86;91.00;102315.59;5052465;28;20228;-50
2022/05/01 07:18:20;;;;;;;5.80;3.97;;;;;;;9.15;90.52;102313.59;5034551;28;20206;-50
2022/05/01 07:20:47;;;;;;;9.18;4.35;;;;;;;9.42;89.26;102313.34;5034225;28;20198;-49
2022/05/01 07:23:12;;;;;;;5.18;3.60;;;;;;;9.53;87.79;102313.22;5034056;28;20286;-49
2022/05/01 07:25:38;;;;;;;4.95;3.55;;;;;;;9.20;86.71;102312.63;5052135;28;20357;-48
2022/05/01 07:28:03;;;;;;;4.68;3.42;;;;;;;9.39;87.27;102323.19;5052819;28;20194;-51
2022/05/01 07:30:29;;;;;;;5.38;3.72;;;;;;;9.55;86.52;102315.88;5051542;28;20191;-51
2022/05/01 07:32:54;;;;;;;4.90;4.32;;;;;;;9.09;86.01;102325.22;5052409;28;20183;-50
2022/05/01 07:35:19;;;;;;;6.72;3.53;;;;;;;9.29;86.78;102325.03;5052151;28;20622;-51
2022/05/01 07:37:45;;;;;;;6.50;3.95;;;;;;;9.27;86.91;102329.50;5051898;28;20183;-50
2022/05/01 07:40:11;;;;;;;6.45;3.85;;;;;;;9.27;86.53;102325.06;5051763;28;20309;-48
2022/05/01 07:42:37;;;;;;;5.03;3.03;;;;;;;8.81;86.27;102329.88;5051543;28;20187;-44
2022/05/01 07:45:03;;;;;;;4.80;3.47;;;;;;;9.21;86.64;102332.28;5052092;28;20509;-45
2022/05/01 07:47:29;;;;;;;5.97;3.72;;;;;;;8.55;86.47;102322.94;5052176;28;20555;-44
2022/05/01 07:49:54;;;;;;;5.88;3.70;;;;;;;8.83;87.62;102328.06;5034065;28;20210;-45
2022/05/01 07:52:19;;;;;;;5.25;3.67;;;;;;;9.41;86.45;102319.59;5032427;28;20524;-46
2022/05/01 07:54:45;;;;;;;4.95;3.05;;;;;;;10.04;85.11;102320.72;5032735;28;20231;-44
2022/05/01 07:57:10;;;;;;;7.18;3.40;;;;;;;10.32;83.65;102323.97;5041029;22;20172;-46
2022/05/01 07:59:36;;;;;;;6.60;3.58;;;;;;;10.26;82.33;102324.88;4982932;28;20229;-47
2022/05/01 08:02:01;;;;;;;4.80;3.20;;;;;;;10.97;80.53;102325.69;4994185;28;20225;-48
2022/05/01 08:04:31;;;;;;;4.30;3.15;;;;;;;10.40;79.01;102340.81;4992480;28;20193;-47
2022/05/01 08:07:01;;;;;;;5.35;2.60;;;;;;;10.82;78.94;102327.72;4992193;28;20247;-47
2022/05/01 08:09:28;;;;;;;3.58;2.65;;;;;;;11.50;75.91;102316.75;4992499;28;20760;-47
2022/05/01 08:11:54;;;;;;;3.40;2.60;;;;;;;11.45;75.99;102328.47;4991681;28;20263;-47
2022/05/01 08:14:21;;;;;;;3.03;1.88;;;;;;;11.30;73.21;102321.56;4992253;28;20560;-47
2022/05/01 08:16:47;;;;;;;1.70;1.60;;;;;;;10.98;71.98;102319.44;4992185;28;20660;-49
2022/05/01 08:21:56;;;;;;;3.58;1.90;;;;;;;10.89;71.36;102321.34;4991159;28;20192;-47
2022/05/01 08:24:22;;;;;;;2.70;1.90;;;;;;;10.94;69.77;102318.59;4990915;28;20173;-47
2022/05/01 08:26:48;;;;;;;2.42;1.77;;;;;;;10.68;71.08;102319.00;4986269;28;20217;-47
2022/05/01 08:29:14;;;;;;;2.40;2.00;;;;;;;11.16;72.24;102318.25;4976021;28;20209;-49
2022/05/01 08:31:43;;;;;;;3.00;1.70;;;;;;;11.48;69.02;102313.22;4991055;28;20263;-49
2022/05/01 08:34:10;;;;;;;5.30;1.90;;;;;;;11.74;67.89;102296.59;4991236;28;20193;-49
2022/05/01 08:36:36;;;;;;;4.85;1.90;;;;;;;12.00;68.72;102302.38;4991328;28;20177;-47
2022/05/01 08:39:02;;;;;;;3.50;1.60;;;;;;;12.81;65.94;102302.38;4991859;28;20572;-46
2022/05/01 08:41:29;;;;;;;3.17;1.40;;;;;;;12.77;63.40;102297.09;4991412;28;20186;-46
2022/05/01 08:44:00;;;;;;;1.95;1.50;;;;;;;12.62;64.11;102297.47;4974292;28;20216;-47
2022/05/01 08:46:39;;;;;;;2.75;1.48;;;;;;;12.71;64.42;102291.84;4991752;28;20193;-47
2022/05/01 08:49:07;;;;;;;2.55;1.20;;;;;;;12.59;63.23;102297.50;4990466;28;20268;-46
2022/05/01 08:51:40;;;;;;;2.45;1.30;;;;;;;12.49;63.34;102293.28;4991230;28;20231;-46
2022/05/01 08:54:11;;;;;;;2.65;1.48;;;;;;;12.41;61.39;102304.19;4991573;28;20165;-45
2022/05/01 08:56:38;;;;;;;1.38;1.20;;;;;;;12.01;61.90;102294.31;4991534;28;20245;-46
2022/05/01 08:59:09;;;;;;;3.30;1.00;;;;;;;11.80;61.12;102297.41;4991371;28;20205;-48
2022/05/01 09:01:36;;;;;;;2.72;1.05;;;;;;;11.80;60.13;102297.41;4973147;28;20188;-45
2022/05/01 09:04:06;;;;;;;1.52;1.10;;;;;;;11.60;61.50;102287.03;4990324;28;20693;-47
2022/05/01 09:06:34;;;;;;;4.25;1.00;;;;;;;12.01;61.33;102293.44;4991017;28;20213;-46
2022/05/01 09:09:03;;;;;;;2.38;1.15;;;;;;;12.82;59.92;102277.28;4991075;28;20207;-48
2022/05/01 09:14:13;;;;;;;1.45;0.80;;;;;;;13.26;58.39;102278.84;4990984;28;20208;-47
2022/05/01 09:16:39;;;;;;;8.52;1.25;;;;;;;12.82;57.92;102288.03;4990986;28;20252;-48
2022/05/01 09:19:05;;;;;;;1.75;0.80;;;;;;;13.24;57.36;102279.81;4990827;28;20185;-48
2022/05/01 09:21:53;;;;;;;1.65;0.93;;;;;;;13.41;57.17;102282.09;4990786;28;20177;-47
2022/05/01 09:24:26;;;;;;;1.35;0.90;;;;;;;14.15;54.28;102287.16;4990923;28;20268;-47
2022/05/01 09:26:52;;;;;;;1.98;0.63;;;;;;;13.88;54.40;102279.88;4990919;28;20216;-47
2022/05/01 09:29:22;;;;;;;1.27;0.90;;;;;;;13.43;54.37;102277.53;4991039;28;20276;-47
2022/05/01 09:31:50;;;;;;;1.65;1.10;;;;;;;13.78;57.40;102287.34;4990461;28;20306;-47
2022/05/01 09:34:21;;;;;;;1.63;0.90;;;;;;;12.56;58.61;102286.84;4989715;28;20192;-48
2022/05/01 09:36:47;;;;;;;2.17;1.25;;;;;;;12.93;60.25;102283.28;4990755;28;20299;-48
2022/05/01 09:39:27;;;;;;;1.30;1.20;;;;;;;12.73;60.15;102291.84;4990651;28;20220;-45
2022/05/01 09:41:55;;;;;;;2.55;1.52;;;;;;;12.41;60.61;102289.88;4990408;28;20177;-48
2022/05/01 09:44:22;;;;;;;1.38;1.25;;;;;;;12.57;60.50;102277.84;4990540;28;20197;-47
2022/05/01 09:46:49;;;;;;;1.13;1.02;;;;;;;12.48;59.77;102281.63;4990630;28;20209;-48
2022/05/01 09:49:16;;;;;;;2.30;1.30;;;;;;;13.19;58.79;102280.81;4990220;28;20197;-47
2022/05/01 09:51:52;;;;;;;1.70;1.33;;;;;;;13.25;58.43;102282.47;4990172;28;20185;-45
2022/05/01 09:54:22;;;;;;;2.50;1.30;;;;;;;12.77;59.58;102283.66;4990284;28;20288;-48
2022/05/01 09:56:54;;;;;;;1.85;1.00;;;;;;;12.57;58.44;102277.84;4990698;28;20181;-47
2022/05/01 09:59:22;;;;;;;2.28;1.38;;;;;;;12.66;60.90;102280.34;4990263;28;20230;-46
2022/05/01 10:02:04;;;;;;;2.45;1.40;;;;;;;12.30;61.09;102288.31;4989971;28;20189;-46
2022/05/01 10:04:32;;;;;;;2.42;1.77;;;;;;;12.34;62.15;102273.00;4990619;28;20167;-47
2022/05/01 10:06:58;;;;;;;2.65;1.50;;;;;;;12.25;62.09;102284.84;4990334;28;20251;-47
2022/05/01 10:09:27;;;;;;;4.93;1.73;;;;;;;12.50;61.84;102278.91;4990424;28;20229;-48
2022/05/01 10:12:03;;;;;;;4.03;1.77;;;;;;;12.60;63.22;102280.47;4990138;28;20188;-46
2022/05/01 10:14:28;;;;;;;1.75;1.65;;;;;;;12.47;63.48;102276.31;4990271;28;20175;-47
2022/05/01 10:16:54;;;;;;;2.22;1.50;;;;;;;12.30;63.25;102277.56;4990389;28;20162;-47
2022/05/01 10:19:23;;;;;;;2.55;1.63;;;;;;;12.30;63.76;102282.94;4989981;28;20201;-46
2022/05/01 10:21:51;;;;;;;1.92;1.50;;;;;;;11.96;64.02;102285.47;4972469;28;20181;-47
2022/05/01 10:24:17;;;;;;;1.75;1.48;;;;;;;11.93;63.31;102281.03;4990416;28;20176;-46
2022/05/01 10:26:57;;;;;;;2.45;1.30;;;;;;;12.12;62.45;102273.47;4990451;28;20206;-46
2022/05/01 10:32:50;;;;;;;2.58;2.05;;;;;;;12.13;65.30;102275.25;4989797;28;20177;-45
2022/05/01 10:35:21;;;;;;;1.77;1.67;;;;;;;12.49;65.31;102277.16;4990057;28;20166;-47
2022/05/01 10:37:50;;;;;;;5.32;2.47;;;;;;;12.14;68.52;102281.50;4990319;28;20189;-47
2022/05/01 10:40:40;;;;;;;3.13;2.15;;;;;;;12.10;69.77;102290.56;4989959;28;20255;-47
2022/05/01 10:43:26;;;;;;;3.22;2.10;;;;;;;11.90;68.52;102275.72;4989632;28;20189;-45
2022/05/01 10:45:54;;;;;;;3.88;2.67;;;;;;;12.09;68.01;102281.63;4989929;28;20201;-47
2022/05/01 10:48:35;;;;;;;3.25;2.40;;;;;;;11.72;70.17;102276.97;4990130;28;20624;-48
2022/05/01 10:51:31;;;;;;;3.38;2.13;;;;;;;12.00;67.23;102275.53;4989576;28;20329;-45
2022/05/01 10:54:15;;;;;;;2.50;2.30;;;;;;;12.23;68.39;102277.75;4990741;28;20205;-46
2022/05/01 10:56:44;;;;;;;3.38;1.80;;;;;;;12.32;66.28;102282.91;4990579;28;20186;-47
2022/05/01 10:59:35;;;;;;;2.67;2.47;;;;;;;11.98;68.38;102280.03;4989731;28;20208;-46
2022/05/01 11:02:03;;;;;;;3.03;2.72;;;;;;;12.20;69.74;102283.16;4989907;28;20170;-46
2022/05/01 11:04:32;;;;;;;2.97;2.03;;;;;;;12.27;67.63;102280.31;4989868;28;20177;-48
2022/05/01 11:06:58;;;;;;;2.65;2.00;;;;;;;12.47;65.44;102279.88;4989631;28;20276;-47
2022/05/01 11:09:25;;;;;;;3.10;2.20;;;;;;;12.46;63.54;102270.06;4990255;28;20291;-47
2022/05/01 11:11:56;;;;;;;6.90;2.05;;;;;;;11.77;64.66;102274.19;5005478;28;20170;-44
2022/05/01 11:14:35;;;;;;;3.58;2.60;;;;;;;11.85;67.99;102271.31;4993195;28;20178;-47
2022/05/01 11:17:04;;;;;;;3.42;2.10;;;;;;;11.75;66.16;102270.63;4993177;28;20176;-45
2022/05/01 11:19:34;;;;;;;2.15;1.83;;;;;;;11.92;66.36;102267.66;4993054;28;20299;-44
2022/05/01 11:22:07;;;;;;;2.50;2.00;;;;;;;12.03;67.73;102270.13;4993018;28;20165;-47
2022/05/01 11:24:45;;;;;;;2.97;2.60;;;;;;;12.05;67.56;102270.97;4993318;28;20576;-45
2022/05/01 11:27:11;;;;;;;2.72;2.10;;;;;;;11.98;68.91;102277.38;4992891;28;20196;-44
2022/05/01 11:29:37;;;;;;;3.05;1.80;;;;;;;11.76;66.47;102272.38;4992735;28;20205;-45
2022/05/01 11:32:41;;;;;;;1.70;1.60;;;;;;;12.12;64.10;102265.41;4992404;28;20600;-46
2022/05/01 11:35:06;;;;;;;1.55;1.40;;;;;;;12.58;61.40;102260.81;4975469;28;20194;-46
2022/05/01 11:37:46;;;;;;;3.63;1.60;;;;;;;13.01;59.63;102258.84;4993030;28;20157;-45
2022/05/01 11:40:20;;;;;;;4.05;1.45;;;;;;;13.19;59.37;102259.28;4992698;28;20193;-46
2022/05/01 11:42:46;;;;;;;2.97;1.55;;;;;;;13.78;59.70;102263.09;4992884;28;20219;-47
2022/05/01 11:45:13;;;;;;;2.70;1.30;;;;;;;14.27;57.90;102258.94;4992663;28;20177;-45
2022/05/01 11:47:40;;;;;;;2.83;1.50;;;;;;;13.57;60.51;102265.44;4992865;28;20177;-46
2022/05/01 11:50:07;;;;;;;1.83;1.45;;;;;;;12.68;58.76;102254.28;4992048;28;20643;-45
2022/05/01 11:52:37;;;;;;;5.75;1.75;;;;;;;12.13;58.90;102264.50;4992188;28;20169;-45
2022/05/01 11:55:08;;;;;;;4.03;1.60;;;;;;;12.15;60.52;102256.41;4992925;28;20213;-47